createdAt,value
2023-04-18T00:02:17.936Z,4.93
2023-04-18T00:05:08.418Z,4.90
2023-04-18T00:07:57.035Z,4.75
2023-04-18T00:10:45.732Z,5.00
2023-04-18T00:13:35.367Z,5.50
2023-04-18T00:16:25.268Z,5.55
2023-04-18T00:19:14.534Z,5.72
2023-04-18T00:22:03.083Z,5.63
2023-04-18T00:24:52.920Z,8.40
2023-04-18T00:27:42.326Z,6.30
2023-04-18T00:30:30.792Z,8.40
2023-04-18T00:33:19.672Z,6.45
2023-04-18T00:36:10.296Z,7.65
2023-04-18T00:38:59.194Z,7.72
2023-04-18T00:41:48.022Z,8.48
2023-04-18T00:44:36.760Z,8.63
2023-04-18T00:47:26.538Z,8.15
2023-04-18T00:50:15.537Z,8.85
2023-04-18T00:53:04.333Z,9.25
2023-04-18T00:55:53.484Z,8.45
2023-04-18T00:58:42.725Z,8.98
2023-04-18T01:01:31.733Z,8.70
2023-04-18T01:04:20.287Z,8.40
2023-04-18T01:07:09.571Z,7.00
2023-04-18T01:09:58.943Z,7.18
2023-04-18T01:12:47.984Z,6.78
2023-04-18T01:15:37.212Z,5.15
2023-04-18T01:18:27.559Z,6.40
2023-04-18T01:21:16.074Z,5.22
2023-04-18T01:24:16.804Z,4.63
2023-04-18T01:27:06.032Z,4.45
2023-04-18T01:29:55.794Z,4.00
2023-04-18T01:32:46.142Z,4.47
2023-04-18T01:35:35.252Z,4.00
2023-04-18T01:38:24.048Z,4.40
2023-04-18T01:41:12.472Z,3.75
2023-04-18T01:44:01.391Z,3.70
2023-04-18T01:46:50.460Z,4.20
2023-04-18T01:49:39.685Z,4.18
2023-04-18T01:52:28.507Z,6.43
2023-04-18T01:55:17.202Z,6.20
2023-04-18T01:58:05.698Z,7.80
2023-04-18T02:00:55.241Z,10.27
2023-04-18T02:03:44.605Z,9.07
2023-04-18T02:06:35.022Z,8.57
2023-04-18T02:09:23.944Z,9.15
2023-04-18T02:12:13.293Z,7.75
2023-04-18T02:15:02.221Z,7.80
2023-04-18T02:17:55.567Z,6.57
2023-04-18T02:20:45.353Z,5.72
2023-04-18T02:23:34.134Z,5.68
2023-04-18T02:26:23.134Z,5.75
2023-04-18T02:29:12.889Z,4.90
2023-04-18T02:32:01.317Z,5.65
2023-04-18T02:34:50.040Z,4.93
2023-04-18T02:37:39.755Z,5.82
2023-04-18T02:40:28.535Z,4.80
2023-04-18T02:43:17.297Z,5.93
2023-04-18T02:46:05.832Z,4.95
2023-04-18T02:48:54.674Z,5.60
2023-04-18T02:51:46.863Z,5.63
2023-04-18T02:54:36.212Z,5.60
2023-04-18T02:57:32.501Z,5.75
2023-04-18T03:00:39.591Z,5.05
2023-04-18T03:03:28.325Z,4.25
2023-04-18T03:06:27.406Z,5.00
2023-04-18T03:09:17.135Z,4.25
2023-04-18T03:12:11.462Z,4.07
2023-04-18T03:15:00.838Z,4.88
2023-04-18T03:17:53.175Z,4.43
2023-04-18T03:20:43.454Z,4.55
2023-04-18T03:23:32.660Z,4.20
2023-04-18T03:26:24.850Z,4.30
2023-04-18T03:29:15.300Z,4.40
2023-04-18T03:32:07.324Z,5.00
2023-04-18T03:34:56.182Z,4.78
2023-04-18T03:37:45.104Z,4.90
2023-04-18T03:40:42.317Z,4.60
2023-04-18T03:43:38.385Z,4.70
2023-04-18T03:46:27.528Z,4.90
2023-04-18T03:49:18.729Z,4.40
2023-04-18T03:52:07.368Z,4.43
2023-04-18T03:54:56.131Z,4.63
2023-04-18T03:57:48.505Z,4.93
2023-04-18T04:00:46.002Z,11.50
2023-04-18T04:03:34.383Z,10.15
2023-04-18T04:06:23.064Z,12.77
2023-04-18T04:09:12.077Z,9.75
2023-04-18T04:12:03.275Z,6.57
2023-04-18T04:14:52.547Z,5.70
2023-04-18T04:17:41.577Z,5.43
2023-04-18T04:20:30.590Z,4.68
2023-04-18T04:23:30.196Z,4.03
2023-04-18T04:26:19.091Z,3.92
2023-04-18T04:29:19.484Z,4.03
2023-04-18T04:32:10.303Z,3.35
2023-04-18T04:35:00.750Z,5.68
2023-04-18T04:37:51.784Z,4.40
2023-04-18T04:40:59.427Z,5.40
2023-04-18T04:43:51.294Z,5.32
2023-04-18T04:46:45.049Z,5.25
2023-04-18T04:49:41.171Z,6.32
2023-04-18T04:52:29.545Z,7.05
2023-04-18T04:55:19.102Z,6.03
2023-04-18T04:58:08.681Z,5.53
2023-04-18T05:01:18.132Z,5.47
2023-04-18T05:04:07.338Z,7.78
2023-04-18T05:06:57.669Z,6.32
2023-04-18T05:09:46.556Z,6.78
2023-04-18T05:12:35.804Z,7.22
2023-04-18T05:15:25.207Z,7.10
2023-04-18T05:18:14.510Z,7.80
2023-04-18T05:21:03.204Z,7.22
2023-04-18T05:23:52.488Z,6.40
2023-04-18T05:26:41.308Z,6.50
2023-04-18T05:29:30.833Z,7.30
2023-04-18T05:32:19.745Z,6.43
2023-04-18T05:35:09.450Z,6.95
2023-04-18T05:37:59.195Z,6.13
2023-04-18T05:40:47.910Z,8.38
2023-04-18T05:43:36.719Z,6.70
2023-04-18T05:46:25.194Z,6.05
2023-04-18T05:49:14.811Z,5.47
2023-04-18T05:52:03.458Z,6.82
2023-04-18T05:54:52.700Z,4.90
2023-04-18T05:57:41.710Z,5.93
2023-04-18T06:00:31.031Z,6.22
2023-04-18T06:03:19.682Z,7.38
2023-04-18T06:06:08.542Z,8.80
2023-04-18T06:08:57.369Z,9.70
2023-04-18T06:11:46.574Z,8.15
2023-04-18T06:14:34.984Z,6.88
2023-04-18T06:17:23.488Z,7.30
2023-04-18T06:20:13.154Z,6.40
2023-04-18T06:23:02.254Z,5.25
2023-04-18T06:25:50.743Z,5.18
2023-04-18T06:28:39.080Z,4.30
2023-04-18T06:31:28.056Z,5.07
2023-04-18T06:34:17.153Z,6.78
2023-04-18T06:37:05.961Z,9.30
2023-04-18T06:39:55.090Z,14.70
2023-04-18T06:42:45.212Z,11.40
2023-04-18T06:45:34.278Z,7.63
2023-04-18T06:48:23.825Z,5.88
2023-04-18T06:51:12.961Z,6.25
2023-04-18T06:54:02.058Z,5.63
2023-04-18T06:56:50.603Z,6.60
2023-04-18T06:59:40.956Z,6.18
2023-04-18T07:02:30.252Z,5.57
2023-04-18T07:05:19.389Z,7.13
2023-04-18T07:08:08.595Z,7.18
2023-04-18T07:10:58.048Z,5.93
2023-04-18T07:13:48.862Z,6.13
2023-04-18T07:16:37.929Z,6.00
2023-04-18T07:19:27.277Z,5.38
2023-04-18T07:22:41.557Z,4.68
2023-04-18T07:25:30.109Z,4.70
2023-04-18T07:28:18.473Z,4.40
2023-04-18T07:31:11.284Z,7.28
2023-04-18T07:34:00.006Z,4.38
2023-04-18T07:36:48.524Z,4.93
2023-04-18T07:39:36.738Z,5.75
2023-04-18T07:42:24.968Z,6.07
2023-04-18T07:45:13.197Z,4.47
2023-04-18T07:48:02.042Z,4.47
2023-04-18T07:50:50.508Z,5.70
2023-04-18T07:53:41.134Z,4.40
2023-04-18T07:56:29.819Z,4.70
2023-04-18T07:59:18.358Z,5.13
2023-04-18T08:02:07.023Z,4.88
2023-04-18T08:04:56.789Z,5.30
2023-04-18T08:07:46.170Z,4.22
2023-04-18T08:10:35.051Z,4.05
2023-04-18T08:13:23.518Z,4.40
2023-04-18T08:16:12.554Z,4.85
2023-04-18T08:19:02.081Z,4.78
2023-04-18T08:21:52.302Z,4.95
2023-04-18T08:24:44.537Z,4.95
2023-04-18T08:27:39.781Z,3.60
2023-04-18T08:30:28.796Z,3.38
2023-04-18T08:33:17.383Z,4.05
2023-04-18T08:36:06.295Z,3.53
2023-04-18T08:38:57.530Z,2.92
2023-04-18T08:41:52.847Z,4.20
2023-04-18T08:44:42.441Z,4.38
2023-04-18T08:47:31.264Z,4.07
2023-04-18T08:50:19.861Z,3.80
2023-04-18T08:53:08.561Z,3.30
2023-04-18T08:55:58.364Z,2.90
2023-04-18T08:58:46.826Z,3.30
2023-04-18T09:01:51.278Z,2.80
2023-04-18T09:04:43.529Z,2.67
2023-04-18T09:07:31.996Z,2.42
2023-04-18T09:10:33.313Z,1.98
2023-04-18T09:13:39.893Z,2.10
2023-04-18T09:16:28.739Z,2.20
2023-04-18T09:19:21.810Z,1.70
2023-04-18T09:22:10.398Z,1.60
2023-04-18T09:24:59.566Z,1.58
2023-04-18T09:27:47.845Z,1.65
2023-04-18T09:30:42.331Z,1.85
2023-04-18T09:33:36.951Z,2.30
2023-04-18T09:36:27.940Z,2.80
2023-04-18T09:39:28.549Z,2.28
2023-04-18T09:42:18.286Z,2.00
2023-04-18T09:45:08.591Z,1.95
2023-04-18T09:47:58.792Z,1.88
2023-04-18T09:50:48.969Z,2.03
2023-04-18T09:53:44.951Z,2.95
2023-04-18T09:56:37.343Z,3.92
2023-04-18T09:59:47.964Z,3.70
2023-04-18T10:02:50.465Z,4.70
2023-04-18T10:05:41.700Z,5.45
2023-04-18T10:08:30.884Z,5.00
2023-04-18T10:11:20.298Z,5.40
2023-04-18T10:14:13.273Z,4.57
2023-04-18T10:17:02.353Z,4.47
2023-04-18T10:20:30.593Z,5.30
2023-04-18T10:23:37.631Z,2.95
2023-04-18T10:26:47.247Z,3.35
2023-04-18T10:29:51.780Z,3.03
2023-04-18T10:32:41.287Z,2.22
2023-04-18T10:35:30.131Z,1.98
2023-04-18T10:38:18.718Z,2.38
2023-04-18T10:41:15.367Z,1.98
2023-04-18T10:44:16.000Z,3.53
2023-04-18T10:47:07.354Z,3.00
2023-04-18T10:49:57.160Z,2.90
2023-04-18T10:52:45.811Z,2.60
2023-04-18T10:55:34.784Z,4.82
2023-04-18T10:58:23.293Z,3.20
2023-04-18T11:01:14.385Z,2.83
2023-04-18T11:04:12.874Z,2.15
2023-04-18T11:07:03.009Z,1.67
2023-04-18T11:09:55.283Z,2.17
2023-04-18T11:12:43.700Z,2.00
2023-04-18T11:15:32.757Z,1.50
2023-04-18T11:18:21.712Z,2.50
2023-04-18T11:21:10.781Z,1.58
2023-04-18T11:23:59.320Z,2.95
2023-04-18T11:26:48.296Z,2.38
2023-04-18T11:29:37.482Z,2.10
2023-04-18T11:32:26.347Z,2.40
2023-04-18T11:35:16.154Z,2.15
2023-04-18T11:38:05.773Z,2.20
2023-04-18T11:40:54.793Z,2.60
2023-04-18T11:43:46.717Z,3.55
2023-04-18T11:46:39.020Z,3.70
2023-04-18T11:49:32.550Z,3.63
2023-04-18T11:52:21.363Z,4.13
2023-04-18T11:55:24.906Z,4.00
2023-04-18T11:58:14.768Z,5.03
2023-04-18T12:01:19.113Z,4.85
2023-04-18T12:04:09.222Z,3.88
2023-04-18T12:06:58.739Z,3.38
2023-04-18T12:09:47.167Z,3.70
2023-04-18T12:12:36.787Z,4.07
2023-04-18T12:15:29.474Z,4.28
2023-04-18T12:18:22.075Z,2.80
2023-04-18T12:21:10.839Z,4.65
2023-04-18T12:23:59.792Z,3.08
2023-04-18T12:26:49.781Z,4.15
2023-04-18T12:29:38.104Z,3.45
2023-04-18T12:32:27.049Z,3.53
2023-04-18T12:35:16.847Z,4.10
2023-04-18T12:38:06.095Z,5.45
2023-04-18T12:40:54.546Z,3.67
2023-04-18T12:43:43.397Z,2.92
2023-04-18T12:46:32.486Z,3.05
2023-04-18T12:49:20.778Z,2.80
2023-04-18T12:52:09.740Z,3.45
2023-04-18T12:54:58.186Z,6.07
2023-04-18T12:57:46.633Z,9.23
2023-04-18T13:00:35.844Z,7.60
2023-04-18T13:03:25.158Z,6.07
2023-04-18T13:06:13.879Z,5.30
2023-04-18T13:09:02.720Z,5.53
2023-04-18T13:11:51.385Z,4.82
2023-04-18T13:14:40.084Z,4.95
2023-04-18T13:17:28.818Z,4.60
2023-04-18T13:20:17.335Z,3.83
2023-04-18T13:23:06.325Z,4.82
2023-04-18T13:25:55.147Z,4.15
2023-04-18T13:28:43.674Z,4.05
2023-04-18T13:31:32.102Z,4.80
2023-04-18T13:34:20.656Z,3.92
2023-04-18T13:37:09.647Z,4.32
2023-04-18T13:39:58.158Z,4.28
2023-04-18T13:42:46.920Z,3.95
2023-04-18T13:45:35.411Z,4.43
2023-04-18T13:48:24.276Z,4.75
2023-04-18T13:51:13.737Z,4.05
2023-04-18T13:54:03.605Z,4.78
2023-04-18T13:56:57.649Z,3.38
2023-04-18T13:59:46.144Z,3.63
2023-04-18T14:02:34.600Z,2.90
2023-04-18T14:05:23.957Z,3.10
2023-04-18T14:08:12.972Z,2.72
2023-04-18T14:11:01.500Z,2.67
2023-04-18T14:13:50.256Z,2.67
2023-04-18T14:16:38.814Z,2.65
2023-04-18T14:19:27.966Z,3.70
2023-04-18T14:22:16.862Z,3.33
2023-04-18T14:25:06.031Z,2.70
2023-04-18T14:28:06.949Z,2.97
2023-04-18T14:31:00.012Z,2.83
2023-04-18T14:33:48.670Z,2.75
2023-04-18T14:36:37.454Z,2.83
2023-04-18T14:39:26.422Z,2.83
2023-04-18T14:42:15.148Z,3.05
2023-04-18T14:45:05.297Z,2.45
2023-04-18T14:47:55.904Z,2.38
2023-04-18T14:50:44.811Z,2.40
2023-04-18T14:53:33.532Z,2.38
2023-04-18T14:56:25.933Z,2.90
2023-04-18T14:59:16.378Z,3.15
2023-04-18T15:02:05.798Z,2.72
2023-04-18T15:04:55.041Z,2.95
2023-04-18T15:07:45.152Z,4.85
2023-04-18T15:10:33.984Z,3.70
2023-04-18T15:13:22.514Z,3.35
2023-04-18T15:16:12.272Z,2.72
2023-04-18T15:19:00.709Z,4.57
2023-04-18T15:21:49.674Z,3.53
2023-04-18T15:24:38.456Z,1.20
2023-04-18T15:27:26.967Z,1.50
2023-04-18T15:40:28.923Z,1.85
2023-04-18T15:43:18.160Z,2.00
2023-04-18T15:46:07.197Z,6.30
2023-04-18T15:48:55.690Z,11.60
2023-04-18T15:51:44.524Z,12.75
2023-04-18T15:54:33.676Z,7.85
2023-04-18T15:57:22.466Z,5.68
2023-04-18T16:00:16.279Z,7.85
2023-04-18T16:03:05.522Z,6.55
2023-04-18T16:05:54.510Z,9.05
2023-04-18T16:08:43.188Z,8.45
2023-04-18T16:11:32.113Z,14.43
2023-04-18T16:14:20.878Z,14.15
2023-04-18T16:17:09.393Z,14.77
2023-04-18T16:19:58.128Z,33.20
2023-04-18T16:22:47.045Z,18.00
2023-04-18T16:25:35.472Z,16.65
2023-04-18T16:28:24.451Z,11.10
2023-04-18T16:31:15.599Z,9.60
2023-04-18T16:34:04.305Z,14.25
2023-04-18T16:36:53.923Z,14.23
2023-04-18T16:39:44.094Z,15.95
2023-04-18T16:42:33.608Z,14.60
2023-04-18T16:45:22.016Z,16.80
2023-04-18T16:48:11.335Z,18.00
2023-04-18T16:51:00.280Z,14.60
2023-04-18T16:53:49.383Z,18.55
2023-04-18T16:56:37.898Z,22.77
2023-04-18T16:59:26.771Z,25.90
2023-04-18T17:02:15.742Z,22.83
2023-04-18T17:05:04.389Z,22.88
2023-04-18T17:07:53.139Z,25.02
2023-04-18T17:10:42.083Z,20.77
2023-04-18T17:13:31.727Z,24.55
2023-04-18T17:16:20.794Z,26.90
2023-04-18T17:19:10.344Z,22.73
2023-04-18T17:21:59.296Z,21.77
2023-04-18T17:24:54.154Z,20.55
2023-04-18T17:27:43.234Z,15.30
2023-04-18T17:30:31.636Z,17.42
2023-04-18T17:33:20.171Z,19.80
2023-04-18T17:36:09.129Z,25.83
2023-04-18T17:39:05.471Z,23.55
2023-04-18T17:41:53.977Z,19.27
2023-04-18T17:44:42.483Z,19.67
2023-04-18T17:47:33.603Z,20.13
2023-04-18T17:50:23.016Z,15.07
2023-04-18T17:53:12.478Z,19.65
2023-04-18T17:56:01.154Z,17.90
2023-04-18T17:58:50.016Z,15.20
2023-04-18T18:01:40.469Z,14.00
2023-04-18T18:04:29.156Z,17.08
2023-04-18T18:07:18.746Z,26.25
2023-04-18T18:10:08.055Z,17.92
2023-04-18T18:12:57.024Z,43.08
2023-04-18T18:15:45.989Z,26.67
2023-04-18T18:18:49.735Z,24.63
2023-04-18T18:21:38.618Z,21.58
2023-04-18T18:24:27.652Z,33.45
2023-04-18T18:27:19.700Z,28.73
2023-04-18T18:30:09.009Z,22.95
2023-04-18T18:32:57.905Z,27.35
2023-04-18T18:35:47.098Z,32.30
2023-04-18T18:38:36.543Z,31.67
2023-04-18T18:41:25.774Z,27.67
2023-04-18T18:44:15.145Z,31.35
2023-04-18T18:47:03.537Z,42.63
2023-04-18T18:49:51.996Z,47.13
2023-04-18T18:52:43.086Z,50.30
2023-04-18T18:55:31.608Z,44.53
2023-04-18T18:58:20.813Z,43.10
2023-04-18T19:01:11.565Z,35.78
2023-04-18T19:04:01.238Z,29.08
2023-04-18T19:06:50.561Z,29.42
2023-04-18T19:09:38.938Z,33.40
2023-04-18T19:12:28.460Z,37.55
2023-04-18T19:15:18.130Z,37.10
2023-04-18T19:18:07.087Z,35.15
2023-04-18T19:20:56.338Z,37.75
2023-04-18T19:23:45.618Z,40.13
2023-04-18T19:26:34.606Z,43.42
2023-04-18T19:29:24.172Z,42.63
2023-04-18T19:32:13.142Z,41.90
2023-04-18T19:35:01.979Z,36.97
2023-04-18T19:37:52.534Z,32.70
2023-04-18T19:40:41.586Z,30.80
2023-04-18T19:43:30.900Z,27.73
2023-04-18T19:46:19.841Z,31.40
2023-04-18T19:49:09.095Z,35.22
2023-04-18T19:51:57.921Z,31.25
2023-04-18T19:54:47.252Z,28.75
2023-04-18T19:57:40.178Z,28.65
2023-04-18T20:00:29.650Z,25.50
2023-04-18T20:03:43.434Z,27.73
2023-04-18T20:06:32.153Z,26.63
2023-04-18T20:09:21.272Z,22.88
2023-04-18T20:12:11.026Z,25.63
2023-04-18T20:15:01.428Z,22.63
2023-04-18T20:17:55.727Z,19.98
2023-04-18T20:20:44.505Z,19.40
2023-04-18T20:23:33.108Z,18.70
2023-04-18T20:26:22.213Z,19.58
2023-04-18T20:29:11.361Z,19.55
2023-04-18T20:32:00.494Z,15.93
2023-04-18T20:34:49.576Z,14.88
2023-04-18T20:37:41.497Z,14.07
2023-04-18T20:40:30.899Z,14.65
2023-04-18T20:43:19.624Z,12.82
2023-04-18T20:46:08.675Z,12.52
2023-04-18T20:48:57.477Z,15.98
2023-04-18T20:51:47.390Z,14.15
2023-04-18T20:54:36.710Z,11.02
2023-04-18T20:57:25.608Z,9.32
2023-04-18T21:00:14.526Z,8.68
2023-04-18T21:03:04.456Z,7.00
2023-04-18T21:05:52.986Z,7.57
2023-04-18T21:08:42.289Z,10.25
2023-04-18T21:11:31.405Z,16.60
2023-04-18T21:14:20.814Z,13.95
2023-04-18T21:17:10.681Z,16.05
2023-04-18T21:19:59.084Z,18.65
2023-04-18T21:22:47.684Z,22.95
2023-04-18T21:25:37.031Z,23.17
2023-04-18T21:28:26.411Z,25.05
2023-04-18T21:31:15.220Z,26.98
2023-04-18T21:34:06.185Z,30.58
2023-04-18T21:36:55.355Z,31.00
2023-04-18T21:39:44.541Z,28.27
2023-04-18T21:42:35.351Z,24.25
2023-04-18T21:45:24.185Z,23.80
2023-04-18T21:48:13.161Z,25.70
2023-04-18T21:51:01.963Z,25.10
2023-04-18T21:53:50.927Z,27.73
2023-04-18T21:56:39.813Z,30.88
2023-04-18T21:59:28.774Z,27.83
2023-04-18T22:02:17.197Z,22.30
2023-04-18T22:05:07.720Z,20.00
2023-04-18T22:07:58.608Z,19.23
2023-04-18T22:10:50.507Z,18.02
2023-04-18T22:13:39.456Z,17.58
2023-04-18T22:16:28.926Z,19.50
2023-04-18T22:19:17.723Z,18.48
2023-04-18T22:22:06.508Z,15.35
2023-04-18T22:24:55.414Z,12.27
2023-04-18T22:27:45.227Z,16.48
2023-04-18T22:30:33.837Z,19.70
2023-04-18T22:33:22.313Z,20.05
2023-04-18T22:36:11.925Z,16.40
2023-04-18T22:39:00.826Z,17.08
2023-04-18T22:41:49.630Z,18.30
2023-04-18T22:44:38.567Z,21.40
2023-04-18T22:47:27.084Z,25.70
2023-04-18T22:50:16.563Z,22.05
2023-04-18T22:53:04.941Z,20.92
2023-04-18T22:55:53.238Z,16.80
2023-04-18T22:58:41.484Z,18.13
2023-04-18T23:01:29.861Z,20.10
2023-04-18T23:04:18.631Z,19.52
2023-04-18T23:07:07.777Z,19.83
2023-04-18T23:09:56.883Z,26.60
2023-04-18T23:12:45.755Z,36.55
2023-04-18T23:15:34.609Z,41.25
2023-04-18T23:18:23.484Z,47.92
2023-04-18T23:21:13.152Z,40.65
2023-04-18T23:24:02.219Z,44.63
2023-04-18T23:26:51.554Z,38.42
2023-04-18T23:29:40.290Z,31.48
2023-04-18T23:32:28.887Z,38.90
2023-04-18T23:35:18.141Z,34.35
2023-04-18T23:38:07.164Z,18.02
2023-04-18T23:40:55.862Z,18.27
2023-04-18T23:43:44.687Z,24.48
2023-04-18T23:46:35.057Z,19.52
2023-04-18T23:49:27.665Z,19.98
2023-04-18T23:52:17.002Z,21.30
2023-04-18T23:55:06.176Z,26.45
2023-04-18T23:57:55.200Z,17.38
